Pedra Preta, Brazil
Current Conditions -  °F | °C
As of 7:00 AM on Friday 24 Oct 2014 (Local Time) from SBCY Reporting Station
Broken Clouds Broken Clouds  
Wind Chill: 81°   Ceiling: 10000
Heat Index: 85°   Visibility: 6mi
Dew Point: 72°   Wind: 13mph
Humidity: 74%   Direction: 30°NNE
Pressure: 29.88"   Gusts: NA
Location:  16.62°S, 54.47°W
Report Text: SBCY 241000Z 03011KT 9999 FEW020 BKN100 27/22 Q1012
Loading
Personal Weather Stations






























Interactive Weather Map
Tropical Storm Tracking
New forecast layout! Learn more

10-Day Weather Forecast

Advertisements
Track Severe Weather on mobile